Time;durP1;ratioP1;P1;durP2;ratioP2;P2;SDS_P1;SDS_P2;PMS_P1;PMS_P2;Temp;Humidity;BMP_temperature;BMP_pressure;BME280_temperature;BME280_humidity;BME280_pressure;Samples;Min_cycle;Max_cycle;Signal;HPM_P1;HPM_P2
2020/04/05 00:00:16;;;;;;;17.1;10.55;;;;;;;2.95;59.8418;95835.66;;;;
2020/04/05 00:01:55;;;;;;;13.6;10.55;;;;;;;2.91;60.25879;95833.04;;;;
2020/04/05 00:03:09;;;;;;;13.6;10.55;;;;;;;2.91;60.25879;95833.04;;;;
2020/04/05 00:04:12;;;;;;;13.6;10.55;;;;;;;2.91;60.25879;95833.04;;;;
2020/04/05 00:05:22;;;;;;;14.95;12;;;;;;;2.93;60.66211;95830.62;;;;
2020/04/05 00:06:44;;;;;;;14.95;12;;;;;;;2.93;60.66211;95830.62;;;;
2020/04/05 00:07:53;;;;;;;14.65;12;;;;;;;2.96;61.16113;95834.75;;;;
2020/04/05 00:08:54;;;;;;;14.65;12;;;;;;;2.96;61.16113;95834.75;;;;
2020/04/05 00:09:58;;;;;;;14.65;12;;;;;;;2.96;61.16113;95834.75;;;;
2020/04/05 00:11:57;;;;;;;14.65;12;;;;;;;2.96;61.16113;95834.75;;;;
2020/04/05 00:13:05;;;;;;;14.65;12;;;;;;;2.96;61.16113;95834.75;;;;
2020/04/05 00:14:26;;;;;;;14.65;12;;;;;;;2.96;61.16113;95834.75;;;;
2020/04/05 00:15:32;;;;;;;14.65;12;;;;;;;2.96;61.16113;95834.75;;;;
2020/04/05 00:16:32;;;;;;;14.65;12;;;;;;;2.96;61.16113;95834.75;;;;
2020/04/05 00:17:35;;;;;;;14.65;12;;;;;;;2.96;61.16113;95834.75;;;;
2020/04/05 00:18:36;;;;;;;15.25;10.3;;;;;;;2.58;60.06445;95818.63;;;;
2020/04/05 00:19:36;;;;;;;15.25;10.3;;;;;;;2.58;60.06445;95818.63;;;;
2020/04/05 00:20:39;;;;;;;17;11.8;;;;;;;2.55;60.45996;95810.16;;;;
2020/04/05 00:21:39;;;;;;;17;11.8;;;;;;;2.55;60.45996;95810.16;;;;
2020/04/05 00:22:46;;;;;;;17;11.8;;;;;;;2.55;60.45996;95810.16;;;;
2020/04/05 00:23:50;;;;;;;18.15;13.3;;;;;;;2.58;60.89648;95815.12;;;;
2020/04/05 00:24:52;;;;;;;18.15;13.3;;;;;;;2.58;60.89648;95815.12;;;;
2020/04/05 00:25:54;;;;;;;18.1;13.7;;;;;;;2.6;61.50098;95807.3;;;;
2020/04/05 00:26:57;;;;;;;18.1;13.7;;;;;;;2.6;61.50098;95807.3;;;;
2020/04/05 00:28:01;;;;;;;18.1;13.7;;;;;;;2.6;61.50098;95807.3;;;;
2020/04/05 00:29:09;;;;;;;18.1;13.7;;;;;;;2.6;61.50098;95807.3;;;;
2020/04/05 00:30:10;;;;;;;18.1;13.7;;;;;;;2.6;61.50098;95807.3;;;;
2020/04/05 00:31:13;;;;;;;18.1;13.7;;;;;;;2.6;61.50098;95807.3;;;;
2020/04/05 00:32:17;;;;;;;18.1;13.7;;;;;;;2.6;61.50098;95807.3;;;;
2020/04/05 00:33:25;;;;;;;18.1;13.7;;;;;;;2.6;61.50098;95807.3;;;;
2020/04/05 00:34:26;;;;;;;18.1;13.7;;;;;;;2.6;61.50098;95807.3;;;;
2020/04/05 00:35:27;;;;;;;18.1;13.7;;;;;;;2.6;61.50098;95807.3;;;;
2020/04/05 00:36:27;;;;;;;16;11;;;;;;;2.25;60.49121;95810.44;;;;
2020/04/05 00:37:31;;;;;;;16;11;;;;;;;2.25;60.49121;95810.44;;;;
2020/04/05 00:38:47;;;;;;;16;11;;;;;;;2.25;60.49121;95810.44;;;;
2020/04/05 00:39:47;;;;;;;18.85;13.15;;;;;;;2.23;60.89941;95810.3;;;;
2020/04/05 00:40:50;;;;;;;18.85;13.15;;;;;;;2.23;60.89941;95810.3;;;;
2020/04/05 00:41:54;;;;;;;18.85;13.15;;;;;;;2.23;60.89941;95810.3;;;;
2020/04/05 00:43:01;;;;;;;18.85;13.15;;;;;;;2.23;60.89941;95810.3;;;;
2020/04/05 00:44:05;;;;;;;18.85;13.15;;;;;;;2.23;60.89941;95810.3;;;;
2020/04/05 00:45:08;;;;;;;18.85;13.15;;;;;;;2.23;60.89941;95810.3;;;;
2020/04/05 00:46:08;;;;;;;18.85;13.15;;;;;;;2.23;60.89941;95810.3;;;;
2020/04/05 00:47:11;;;;;;;18.85;13.15;;;;;;;2.23;60.89941;95810.3;;;;
2020/04/05 00:48:18;;;;;;;18.85;13.15;;;;;;;2.23;60.89941;95810.3;;;;
2020/04/05 00:49:21;;;;;;;18.85;13.15;;;;;;;2.23;60.89941;95810.3;;;;
2020/04/05 00:50:25;;;;;;;16.55;11.6;;;;;;;1.98;60.04297;95805.94;;;;
2020/04/05 00:51:28;;;;;;;16.55;11.6;;;;;;;1.98;60.04297;95805.94;;;;
2020/04/05 00:52:31;;;;;;;16.45;12.25;;;;;;;2;60.49805;95810.67;;;;
2020/04/05 00:53:32;;;;;;;16.45;12.25;;;;;;;2;60.49805;95810.67;;;;
2020/04/05 00:54:32;;;;;;;16.45;12.25;;;;;;;2;60.49805;95810.67;;;;
2020/04/05 00:55:36;;;;;;;17.9;13.95;;;;;;;2.05;61.04199;95807.83;;;;
2020/04/05 00:56:44;;;;;;;17.9;13.95;;;;;;;2.05;61.04199;95807.83;;;;
2020/04/05 00:57:49;;;;;;;17.85;14.55;;;;;;;2.11;61.80957;95804.08;;;;
2020/04/05 00:58:50;;;;;;;17.85;14.55;;;;;;;2.11;61.80957;95804.08;;;;
2020/04/05 00:59:51;;;;;;;17.85;14.55;;;;;;;2.11;61.80957;95804.08;;;;
2020/04/05 01:00:56;;;;;;;17.85;14.55;;;;;;;2.11;61.80957;95804.08;;;;
2020/04/05 01:02:03;;;;;;;17.85;14.55;;;;;;;2.11;61.80957;95804.08;;;;
2020/04/05 01:03:09;;;;;;;17.85;14.55;;;;;;;2.11;61.80957;95804.08;;;;
2020/04/05 01:04:14;;;;;;;17.85;14.55;;;;;;;2.11;61.80957;95804.08;;;;
2020/04/05 01:05:19;;;;;;;17.85;14.55;;;;;;;2.11;61.80957;95804.08;;;;
2020/04/05 01:06:20;;;;;;;17.85;14.55;;;;;;;2.11;61.80957;95804.08;;;;
2020/04/05 01:07:20;;;;;;;17.85;14.55;;;;;;;2.11;61.80957;95804.08;;;;
2020/04/05 01:08:29;;;;;;;21.65;12.05;;;;;;;1.86;60.83594;95795.83;;;;
2020/04/05 01:09:30;;;;;;;21.65;12.05;;;;;;;1.86;60.83594;95795.83;;;;
2020/04/05 01:10:31;;;;;;;21.65;12.05;;;;;;;1.86;60.83594;95795.83;;;;
2020/04/05 01:11:35;;;;;;;19.8;13.4;;;;;;;1.86;61.33105;95794.08;;;;
2020/04/05 01:12:38;;;;;;;19.8;13.4;;;;;;;1.86;61.33105;95794.08;;;;
2020/04/05 01:13:49;;;;;;;19.8;13.4;;;;;;;1.86;61.33105;95794.08;;;;
2020/04/05 01:14:50;;;;;;;19.8;13.4;;;;;;;1.86;61.33105;95794.08;;;;
2020/04/05 01:15:52;;;;;;;19.8;13.4;;;;;;;1.86;61.33105;95794.08;;;;
2020/04/05 01:17:07;;;;;;;19.8;13.4;;;;;;;1.86;61.33105;95794.08;;;;
2020/04/05 01:18:21;;;;;;;19.8;13.4;;;;;;;1.86;61.33105;95794.08;;;;
2020/04/05 01:19:24;;;;;;;19.8;13.4;;;;;;;1.86;61.33105;95794.08;;;;
2020/04/05 01:20:29;;;;;;;19.8;13.4;;;;;;;1.86;61.33105;95794.08;;;;
2020/04/05 01:21:33;;;;;;;18.1;12.45;;;;;;;1.69;60.52832;95793.31;;;;
2020/04/05 01:22:53;;;;;;;18.1;12.45;;;;;;;1.69;60.52832;95793.31;;;;
2020/04/05 01:24:23;;;;;;;20;14.2;;;;;;;1.7;60.99219;95796.28;;;;
2020/04/05 01:30:37;;;;;;;20;14.2;;;;;;;1.7;60.99219;95796.28;;;;
2020/04/05 01:31:50;;;;;;;20;14.2;;;;;;;1.7;60.99219;95796.28;;;;
2020/04/05 01:32:59;;;;;;;20;14.2;;;;;;;1.7;60.99219;95796.28;;;;
2020/04/05 01:34:08;;;;;;;20;14.2;;;;;;;1.7;60.99219;95796.28;;;;
2020/04/05 01:35:12;;;;;;;19.1;12.55;;;;;;;1.58;60.38574;95781.68;;;;
2020/04/05 01:36:17;;;;;;;19.1;12.55;;;;;;;1.58;60.38574;95781.68;;;;
2020/04/05 01:37:22;;;;;;;19.1;12.55;;;;;;;1.58;60.38574;95781.68;;;;
2020/04/05 01:38:31;;;;;;;20.1;14.25;;;;;;;1.61;60.90625;95780;;;;
2020/04/05 01:39:31;;;;;;;20.1;14.25;;;;;;;1.61;60.90625;95780;;;;
2020/04/05 01:40:37;;;;;;;20.1;14.25;;;;;;;1.61;60.90625;95780;;;;
2020/04/05 01:42:11;;;;;;;20.1;14.25;;;;;;;1.61;60.90625;95780;;;;
2020/04/05 01:43:24;;;;;;;20.1;14.25;;;;;;;1.61;60.90625;95780;;;;
2020/04/05 01:44:30;;;;;;;20.1;14.25;;;;;;;1.61;60.90625;95780;;;;
2020/04/05 01:45:31;;;;;;;20.1;14.25;;;;;;;1.61;60.90625;95780;;;;
2020/04/05 01:46:49;;;;;;;20.1;14.25;;;;;;;1.61;60.90625;95780;;;;
2020/04/05 01:47:51;;;;;;;20.1;14.25;;;;;;;1.61;60.90625;95780;;;;
2020/04/05 01:48:57;;;;;;;21.75;13.15;;;;;;;1.53;60.3584;95777.34;;;;
2020/04/05 01:50:00;;;;;;;21.75;13.15;;;;;;;1.53;60.3584;95777.34;;;;
2020/04/05 01:51:08;;;;;;;21.05;14.45;;;;;;;1.57;60.86816;95781.75;;;;
2020/04/05 01:52:12;;;;;;;21.05;14.45;;;;;;;1.57;60.86816;95781.75;;;;
2020/04/05 01:53:18;;;;;;;21.05;14.45;;;;;;;1.57;60.86816;95781.75;;;;
2020/04/05 01:54:19;;;;;;;21.05;14.45;;;;;;;1.57;60.86816;95781.75;;;;
2020/04/05 01:55:23;;;;;;;21.05;14.45;;;;;;;1.57;60.86816;95781.75;;;;
2020/04/05 01:56:24;;;;;;;21.05;14.45;;;;;;;1.57;60.86816;95781.75;;;;
2020/04/05 01:57:25;;;;;;;21.05;14.45;;;;;;;1.57;60.86816;95781.75;;;;
2020/04/05 01:58:26;;;;;;;21.05;14.45;;;;;;;1.57;60.86816;95781.75;;;;
2020/04/05 01:59:26;;;;;;;21.05;14.45;;;;;;;1.57;60.86816;95781.75;;;;
2020/04/05 02:00:31;;;;;;;21.05;14.45;;;;;;;1.57;60.86816;95781.75;;;;
2020/04/05 02:01:36;;;;;;;21.85;13.7;;;;;;;1.51;60.28223;95777.09;;;;
2020/04/05 02:02:43;;;;;;;21.85;13.7;;;;;;;1.51;60.28223;95777.09;;;;
2020/04/05 02:03:48;;;;;;;21.85;13.7;;;;;;;1.51;60.28223;95777.09;;;;
2020/04/05 02:04:50;;;;;;;22.15;15.35;;;;;;;1.56;60.8457;95775.27;;;;
2020/04/05 02:05:53;;;;;;;22.15;15.35;;;;;;;1.56;60.8457;95775.27;;;;
2020/04/05 02:06:58;;;;;;;22.15;15.35;;;;;;;1.56;60.8457;95775.27;;;;
2020/04/05 02:08:19;;;;;;;22.15;15.35;;;;;;;1.56;60.8457;95775.27;;;;
2020/04/05 02:09:23;;;;;;;22.15;15.35;;;;;;;1.56;60.8457;95775.27;;;;
2020/04/05 02:10:34;;;;;;;22.15;15.35;;;;;;;1.56;60.8457;95775.27;;;;
2020/04/05 02:11:40;;;;;;;22.15;15.35;;;;;;;1.56;60.8457;95775.27;;;;
2020/04/05 02:13:54;;;;;;;22.15;15.35;;;;;;;1.56;60.8457;95775.27;;;;
2020/04/05 02:15:16;;;;;;;19.6;13.35;;;;;;;1.5;60.46973;95774.53;;;;
2020/04/05 02:16:34;;;;;;;19.6;13.35;;;;;;;1.5;60.46973;95774.53;;;;
2020/04/05 02:17:45;;;;;;;20.75;15.2;;;;;;;1.55;61.02344;95775.34;;;;
2020/04/05 02:18:51;;;;;;;20.75;15.2;;;;;;;1.55;61.02344;95775.34;;;;
2020/04/05 02:19:54;;;;;;;20.75;15.2;;;;;;;1.55;61.02344;95775.34;;;;
2020/04/05 02:26:15;;;;;;;20.75;15.2;;;;;;;1.55;61.02344;95775.34;;;;
2020/04/05 02:27:20;;;;;;;20.75;15.2;;;;;;;1.55;61.02344;95775.34;;;;
2020/04/05 02:28:20;;;;;;;20.2;13.35;;;;;;;1.47;60.50781;95774.46;;;;
2020/04/05 02:29:26;;;;;;;20.2;13.35;;;;;;;1.47;60.50781;95774.46;;;;
2020/04/05 02:30:27;;;;;;;20.2;13.35;;;;;;;1.47;60.50781;95774.46;;;;
2020/04/05 02:31:33;;;;;;;22.95;15.5;;;;;;;1.51;61.0918;95774.44;;;;
2020/04/05 02:32:35;;;;;;;22.95;15.5;;;;;;;1.51;61.0918;95774.44;;;;
2020/04/05 02:33:36;;;;;;;22.95;15.5;;;;;;;1.51;61.0918;95774.44;;;;
2020/04/05 02:34:37;;;;;;;22.95;15.5;;;;;;;1.51;61.0918;95774.44;;;;
2020/04/05 02:35:38;;;;;;;22.95;15.5;;;;;;;1.51;61.0918;95774.44;;;;
2020/04/05 02:36:38;;;;;;;22.95;15.5;;;;;;;1.51;61.0918;95774.44;;;;
2020/04/05 02:37:38;;;;;;;22.95;15.5;;;;;;;1.51;61.0918;95774.44;;;;
2020/04/05 02:38:39;;;;;;;22.95;15.5;;;;;;;1.51;61.0918;95774.44;;;;
2020/04/05 02:39:40;;;;;;;22.95;15.5;;;;;;;1.51;61.0918;95774.44;;;;
2020/04/05 02:40:45;;;;;;;22.95;15.5;;;;;;;1.51;61.0918;95774.44;;;;
2020/04/05 02:41:48;;;;;;;18.9;12.55;;;;;;;1.4;60.71973;95758.84;;;;
2020/04/05 02:42:48;;;;;;;18.9;12.55;;;;;;;1.4;60.71973;95758.84;;;;
2020/04/05 02:43:49;;;;;;;22;15.1;;;;;;;1.42;61.34277;95761.24;;;;
2020/04/05 02:44:50;;;;;;;22;15.1;;;;;;;1.42;61.34277;95761.24;;;;
2020/04/05 02:45:50;;;;;;;22;15.1;;;;;;;1.42;61.34277;95761.24;;;;
2020/04/05 02:46:51;;;;;;;22;15.1;;;;;;;1.42;61.34277;95761.24;;;;
2020/04/05 02:47:52;;;;;;;22;15.1;;;;;;;1.42;61.34277;95761.24;;;;
2020/04/05 02:48:57;;;;;;;22;15.1;;;;;;;1.42;61.34277;95761.24;;;;
2020/04/05 02:49:57;;;;;;;22;15.1;;;;;;;1.42;61.34277;95761.24;;;;
2020/04/05 02:50:58;;;;;;;22;15.1;;;;;;;1.42;61.34277;95761.24;;;;
2020/04/05 02:52:13;;;;;;;22;15.1;;;;;;;1.42;61.34277;95761.24;;;;
2020/04/05 02:53:20;;;;;;;22;15.1;;;;;;;1.42;61.34277;95761.24;;;;
2020/04/05 02:54:29;;;;;;;20;13.7;;;;;;;1.38;60.97852;95754.68;;;;
2020/04/05 02:55:30;;;;;;;20;13.7;;;;;;;1.38;60.97852;95754.68;;;;
2020/04/05 02:56:31;;;;;;;20;13.7;;;;;;;1.38;60.97852;95754.68;;;;
2020/04/05 02:57:36;;;;;;;20;13.7;;;;;;;1.38;60.97852;95754.68;;;;
2020/04/05 02:58:40;;;;;;;20;13.7;;;;;;;1.38;60.97852;95754.68;;;;
2020/04/05 02:59:45;;;;;;;20;13.7;;;;;;;1.38;60.97852;95754.68;;;;
2020/04/05 03:00:47;;;;;;;20;13.7;;;;;;;1.38;60.97852;95754.68;;;;
2020/04/05 03:01:53;;;;;;;20;13.7;;;;;;;1.38;60.97852;95754.68;;;;
2020/04/05 03:02:58;;;;;;;20;13.7;;;;;;;1.38;60.97852;95754.68;;;;
2020/04/05 03:09:11;;;;;;;22.45;13;;;;;;;1.34;60.59473;95738.72;;;;
2020/04/05 03:10:20;;;;;;;22.45;13;;;;;;;1.34;60.59473;95738.72;;;;
2020/04/05 03:11:21;;;;;;;22.45;13;;;;;;;1.34;60.59473;95738.72;;;;
2020/04/05 03:12:21;;;;;;;22.45;13;;;;;;;1.34;60.59473;95738.72;;;;
2020/04/05 03:13:29;;;;;;;22.45;13;;;;;;;1.34;60.59473;95738.72;;;;
2020/04/05 03:14:30;;;;;;;22.45;13;;;;;;;1.34;60.59473;95738.72;;;;
2020/04/05 03:15:30;;;;;;;22.45;13;;;;;;;1.34;60.59473;95738.72;;;;
2020/04/05 03:16:31;;;;;;;21.15;13;;;;;;;1.18;60.25586;95742.72;;;;
2020/04/05 03:17:31;;;;;;;21.15;13;;;;;;;1.18;60.25586;95742.72;;;;
2020/04/05 03:18:32;;;;;;;21.3;15.2;;;;;;;1.21;60.97363;95746.37;;;;
2020/04/05 03:19:33;;;;;;;21.3;15.2;;;;;;;1.21;60.97363;95746.37;;;;
2020/04/05 03:20:33;;;;;;;21.3;15.2;;;;;;;1.21;60.97363;95746.37;;;;
2020/04/05 03:21:34;;;;;;;21.3;15.2;;;;;;;1.21;60.97363;95746.37;;;;
2020/04/05 03:22:35;;;;;;;21.3;15.2;;;;;;;1.21;60.97363;95746.37;;;;
2020/04/05 03:23:35;;;;;;;21.3;15.2;;;;;;;1.21;60.97363;95746.37;;;;
2020/04/05 03:24:36;;;;;;;21.3;15.2;;;;;;;1.21;60.97363;95746.37;;;;
2020/04/05 03:25:36;;;;;;;21.3;15.2;;;;;;;1.21;60.97363;95746.37;;;;
2020/04/05 03:26:37;;;;;;;21.3;15.2;;;;;;;1.21;60.97363;95746.37;;;;
2020/04/05 03:27:37;;;;;;;21.3;15.2;;;;;;;1.21;60.97363;95746.37;;;;
2020/04/05 03:28:38;;;;;;;21.3;15.2;;;;;;;1.21;60.97363;95746.37;;;;
2020/04/05 03:29:39;;;;;;;20;13.6;;;;;;;1.08;60.83008;95743.41;;;;
2020/04/05 03:30:39;;;;;;;20;13.6;;;;;;;1.08;60.83008;95743.41;;;;
2020/04/05 03:31:39;;;;;;;24.1;15.7;;;;;;;1.11;61.43262;95749.72;;;;
2020/04/05 03:32:40;;;;;;;24.1;15.7;;;;;;;1.11;61.43262;95749.72;;;;
2020/04/05 03:33:43;;;;;;;24.1;15.7;;;;;;;1.11;61.43262;95749.72;;;;
2020/04/05 03:34:44;;;;;;;24.1;15.7;;;;;;;1.11;61.43262;95749.72;;;;
2020/04/05 03:35:44;;;;;;;24.1;15.7;;;;;;;1.11;61.43262;95749.72;;;;
2020/04/05 03:36:44;;;;;;;24.1;15.7;;;;;;;1.11;61.43262;95749.72;;;;
2020/04/05 03:37:46;;;;;;;24.1;15.7;;;;;;;1.11;61.43262;95749.72;;;;
2020/04/05 03:38:47;;;;;;;24.1;15.7;;;;;;;1.11;61.43262;95749.72;;;;
2020/04/05 03:39:47;;;;;;;24.1;15.7;;;;;;;1.11;61.43262;95749.72;;;;
2020/04/05 03:40:53;;;;;;;24.1;15.7;;;;;;;1.11;61.43262;95749.72;;;;
2020/04/05 03:41:53;;;;;;;24.1;15.7;;;;;;;1.11;61.43262;95749.72;;;;
2020/04/05 03:42:54;;;;;;;21;13.2;;;;;;;1.1;61.27441;95754.72;;;;
2020/04/05 03:44:02;;;;;;;21;13.2;;;;;;;1.1;61.27441;95754.72;;;;
2020/04/05 03:45:12;;;;;;;21.95;14.95;;;;;;;1.16;61.82813;95755.77;;;;
2020/04/05 03:46:17;;;;;;;21.95;14.95;;;;;;;1.16;61.82813;95755.77;;;;
2020/04/05 03:47:17;;;;;;;21.95;14.95;;;;;;;1.16;61.82813;95755.77;;;;
2020/04/05 03:48:18;;;;;;;21.95;14.95;;;;;;;1.16;61.82813;95755.77;;;;
2020/04/05 03:49:23;;;;;;;21.95;14.95;;;;;;;1.16;61.82813;95755.77;;;;
2020/04/05 03:50:26;;;;;;;21.95;14.95;;;;;;;1.16;61.82813;95755.77;;;;
2020/04/05 03:51:27;;;;;;;21.95;14.95;;;;;;;1.16;61.82813;95755.77;;;;
2020/04/05 03:52:43;;;;;;;21.95;14.95;;;;;;;1.16;61.82813;95755.77;;;;
2020/04/05 03:53:45;;;;;;;21.95;14.95;;;;;;;1.16;61.82813;95755.77;;;;
2020/04/05 03:54:57;;;;;;;21.95;14.95;;;;;;;1.16;61.82813;95755.77;;;;
2020/04/05 03:56:01;;;;;;;22.85;13.5;;;;;;;1.14;61.49121;95746.22;;;;
2020/04/05 03:57:06;;;;;;;22.85;13.5;;;;;;;1.14;61.49121;95746.22;;;;
2020/04/05 03:58:07;;;;;;;22.85;13.5;;;;;;;1.14;61.49121;95746.22;;;;
2020/04/05 03:59:12;;;;;;;22.85;13.5;;;;;;;1.14;61.49121;95746.22;;;;
2020/04/05 04:00:12;;;;;;;22.85;13.5;;;;;;;1.14;61.49121;95746.22;;;;
2020/04/05 04:01:21;;;;;;;22.85;13.5;;;;;;;1.14;61.49121;95746.22;;;;
2020/04/05 04:02:30;;;;;;;22.85;13.5;;;;;;;1.14;61.49121;95746.22;;;;
2020/04/05 04:03:31;;;;;;;22.85;13.5;;;;;;;1.14;61.49121;95746.22;;;;
2020/04/05 04:04:32;;;;;;;22.85;13.5;;;;;;;1.14;61.49121;95746.22;;;;
2020/04/05 04:05:36;;;;;;;22.85;13.5;;;;;;;1.14;61.49121;95746.22;;;;
2020/04/05 04:06:38;;;;;;;22.85;13.5;;;;;;;1.14;61.49121;95746.22;;;;
2020/04/05 04:07:40;;;;;;;22.85;13.5;;;;;;;1.14;61.49121;95746.22;;;;
2020/04/05 04:08:41;;;;;;;22.85;13.5;;;;;;;1.14;61.49121;95746.22;;;;
2020/04/05 04:14:38;;;;;;;22.85;13.5;;;;;;;1.14;61.49121;95746.22;;;;
2020/04/05 04:15:38;;;;;;;22.85;13.5;;;;;;;1.14;61.49121;95746.22;;;;
2020/04/05 04:16:39;;;;;;;22.85;13.5;;;;;;;1.14;61.49121;95746.22;;;;
2020/04/05 04:17:39;;;;;;;18.95;13.1;;;;;;;1.15;60.68262;95763.86;;;;
2020/04/05 04:18:40;;;;;;;18.95;13.1;;;;;;;1.15;60.68262;95763.86;;;;
2020/04/05 04:19:41;;;;;;;19.3;14.15;;;;;;;1.18;61.37012;95763.09;;;;
2020/04/05 04:20:41;;;;;;;19.3;14.15;;;;;;;1.18;61.37012;95763.09;;;;
2020/04/05 04:21:42;;;;;;;19.3;14.15;;;;;;;1.18;61.37012;95763.09;;;;
2020/04/05 04:22:43;;;;;;;19.3;14.15;;;;;;;1.18;61.37012;95763.09;;;;
2020/04/05 04:23:43;;;;;;;19.3;14.15;;;;;;;1.18;61.37012;95763.09;;;;
2020/04/05 04:24:44;;;;;;;19.3;14.15;;;;;;;1.18;61.37012;95763.09;;;;
2020/04/05 04:25:44;;;;;;;19.3;14.15;;;;;;;1.18;61.37012;95763.09;;;;
2020/04/05 04:26:45;;;;;;;19.3;14.15;;;;;;;1.18;61.37012;95763.09;;;;
2020/04/05 04:27:45;;;;;;;19.3;14.15;;;;;;;1.18;61.37012;95763.09;;;;
2020/04/05 04:28:46;;;;;;;19.3;14.15;;;;;;;1.18;61.37012;95763.09;;;;
2020/04/05 04:29:46;;;;;;;19.3;14.15;;;;;;;1.18;61.37012;95763.09;;;;
2020/04/05 04:30:46;;;;;;;22.65;13.75;;;;;;;1.15;61.25098;95767.42;;;;
2020/04/05 04:31:47;;;;;;;22.65;13.75;;;;;;;1.15;61.25098;95767.42;;;;
2020/04/05 04:32:47;;;;;;;22.65;13.75;;;;;;;1.15;61.25098;95767.42;;;;
2020/04/05 04:33:48;;;;;;;22.65;13.75;;;;;;;1.15;61.25098;95767.42;;;;
2020/04/05 04:34:48;;;;;;;22.65;13.75;;;;;;;1.15;61.25098;95767.42;;;;
2020/04/05 04:35:49;;;;;;;22.65;13.75;;;;;;;1.15;61.25098;95767.42;;;;
2020/04/05 04:36:49;;;;;;;22.65;13.75;;;;;;;1.15;61.25098;95767.42;;;;
2020/04/05 04:37:50;;;;;;;22.65;13.75;;;;;;;1.15;61.25098;95767.42;;;;
2020/04/05 04:38:50;;;;;;;22.65;13.75;;;;;;;1.15;61.25098;95767.42;;;;
2020/04/05 04:39:51;;;;;;;22.65;13.75;;;;;;;1.15;61.25098;95767.42;;;;
2020/04/05 04:40:51;;;;;;;19.8;12.85;;;;;;;1.21;61.05762;95770.31;;;;
2020/04/05 04:41:52;;;;;;;19.8;12.85;;;;;;;1.21;61.05762;95770.31;;;;
2020/04/05 04:42:52;;;;;;;19.8;12.85;;;;;;;1.21;61.05762;95770.31;;;;
2020/04/05 04:43:53;;;;;;;19.8;12.85;;;;;;;1.21;61.05762;95770.31;;;;
2020/04/05 04:44:53;;;;;;;19.8;12.85;;;;;;;1.21;61.05762;95770.31;;;;
2020/04/05 04:45:53;;;;;;;19.8;12.85;;;;;;;1.21;61.05762;95770.31;;;;
2020/04/05 04:46:54;;;;;;;19.8;12.85;;;;;;;1.21;61.05762;95770.31;;;;
2020/04/05 04:47:55;;;;;;;19.8;12.85;;;;;;;1.21;61.05762;95770.31;;;;
2020/04/05 04:48:55;;;;;;;19.8;12.85;;;;;;;1.21;61.05762;95770.31;;;;
2020/04/05 04:49:56;;;;;;;19.8;12.85;;;;;;;1.21;61.05762;95770.31;;;;
2020/04/05 04:50:56;;;;;;;19.8;12.85;;;;;;;1.21;61.05762;95770.31;;;;
2020/04/05 04:51:57;;;;;;;19.55;12.75;;;;;;;1.25;61.16992;95772.9;;;;
2020/04/05 04:52:57;;;;;;;19.55;12.75;;;;;;;1.25;61.16992;95772.9;;;;
2020/04/05 04:53:58;;;;;;;19.55;12.75;;;;;;;1.25;61.16992;95772.9;;;;
2020/04/05 04:54:58;;;;;;;19.55;12.75;;;;;;;1.25;61.16992;95772.9;;;;
2020/04/05 04:55:59;;;;;;;19.55;12.75;;;;;;;1.25;61.16992;95772.9;;;;
2020/04/05 04:57:00;;;;;;;19.55;12.75;;;;;;;1.25;61.16992;95772.9;;;;
2020/04/05 04:58:00;;;;;;;19.55;12.75;;;;;;;1.25;61.16992;95772.9;;;;
2020/04/05 04:59:01;;;;;;;19.55;12.75;;;;;;;1.25;61.16992;95772.9;;;;
2020/04/05 05:00:01;;;;;;;19.55;12.75;;;;;;;1.25;61.16992;95772.9;;;;
2020/04/05 05:01:04;;;;;;;19.55;12.75;;;;;;;1.25;61.16992;95772.9;;;;
2020/04/05 05:02:04;;;;;;;20.2;12.55;;;;;;;1.49;60.96289;95775.12;;;;
2020/04/05 05:03:05;;;;;;;20.2;12.55;;;;;;;1.49;60.96289;95775.12;;;;
2020/04/05 05:04:08;;;;;;;20.2;12.55;;;;;;;1.49;60.96289;95775.12;;;;
2020/04/05 05:05:08;;;;;;;20.2;12.55;;;;;;;1.49;60.96289;95775.12;;;;
2020/04/05 05:06:44;;;;;;;20.2;12.55;;;;;;;1.49;60.96289;95775.12;;;;
2020/04/05 05:07:45;;;;;;;20.2;12.55;;;;;;;1.49;60.96289;95775.12;;;;
2020/04/05 05:08:55;;;;;;;20.2;12.55;;;;;;;1.49;60.96289;95775.12;;;;
2020/04/05 05:13:23;;;;;;;19.5;13;;;;;;;1.65;60.7334;95779.1;;;;
2020/04/05 05:14:23;;;;;;;19.5;13;;;;;;;1.65;60.7334;95779.1;;;;
2020/04/05 05:15:24;;;;;;;19.5;13;;;;;;;1.65;60.7334;95779.1;;;;
2020/04/05 05:16:24;;;;;;;19.5;13;;;;;;;1.65;60.7334;95779.1;;;;
2020/04/05 05:17:25;;;;;;;19.5;13;;;;;;;1.65;60.7334;95779.1;;;;
2020/04/05 05:18:25;;;;;;;19.5;13;;;;;;;1.65;60.7334;95779.1;;;;
2020/04/05 05:19:25;;;;;;;19.5;13;;;;;;;1.65;60.7334;95779.1;;;;
2020/04/05 05:20:26;;;;;;;19.5;13;;;;;;;1.65;60.7334;95779.1;;;;
2020/04/05 05:21:26;;;;;;;19.5;13;;;;;;;1.65;60.7334;95779.1;;;;
2020/04/05 05:22:27;;;;;;;19.5;13;;;;;;;1.65;60.7334;95779.1;;;;
2020/04/05 05:23:27;;;;;;;19.3;13.3;;;;;;;1.8;60.50195;95792.92;;;;
2020/04/05 05:24:28;;;;;;;19.3;13.3;;;;;;;1.8;60.50195;95792.92;;;;
2020/04/05 05:25:28;;;;;;;19.3;13.3;;;;;;;1.8;60.50195;95792.92;;;;
2020/04/05 05:26:28;;;;;;;19.3;13.3;;;;;;;1.8;60.50195;95792.92;;;;
2020/04/05 05:27:29;;;;;;;19.3;13.3;;;;;;;1.8;60.50195;95792.92;;;;
2020/04/05 05:28:29;;;;;;;19.3;13.3;;;;;;;1.8;60.50195;95792.92;;;;
2020/04/05 05:29:30;;;;;;;19.3;13.3;;;;;;;1.8;60.50195;95792.92;;;;
2020/04/05 05:30:30;;;;;;;19.3;13.3;;;;;;;1.8;60.50195;95792.92;;;;
2020/04/05 05:31:31;;;;;;;19.3;13.3;;;;;;;1.8;60.50195;95792.92;;;;
2020/04/05 05:32:31;;;;;;;19.3;13.3;;;;;;;1.8;60.50195;95792.92;;;;
2020/04/05 05:33:32;;;;;;;19.3;13.3;;;;;;;1.8;60.50195;95792.92;;;;
2020/04/05 05:34:32;;;;;;;19.7;12.7;;;;;;;1.88;60.48242;95804.91;;;;
2020/04/05 05:35:33;;;;;;;19.7;12.7;;;;;;;1.88;60.48242;95804.91;;;;
2020/04/05 05:36:33;;;;;;;19.7;12.7;;;;;;;1.88;60.48242;95804.91;;;;
2020/04/05 05:37:34;;;;;;;19.7;12.7;;;;;;;1.88;60.48242;95804.91;;;;
2020/04/05 05:38:34;;;;;;;19.7;12.7;;;;;;;1.88;60.48242;95804.91;;;;
2020/04/05 05:39:35;;;;;;;19.7;12.7;;;;;;;1.88;60.48242;95804.91;;;;
2020/04/05 05:40:35;;;;;;;19.7;12.7;;;;;;;1.88;60.48242;95804.91;;;;
2020/04/05 05:41:36;;;;;;;19.7;12.7;;;;;;;1.88;60.48242;95804.91;;;;
2020/04/05 05:42:36;;;;;;;19.7;12.7;;;;;;;1.88;60.48242;95804.91;;;;
2020/04/05 05:43:36;;;;;;;19.7;12.7;;;;;;;1.88;60.48242;95804.91;;;;
2020/04/05 05:44:37;;;;;;;20.25;13.35;;;;;;;2.17;60.32227;95810.97;;;;
2020/04/05 05:45:37;;;;;;;20.25;13.35;;;;;;;2.17;60.32227;95810.97;;;;
2020/04/05 05:46:38;;;;;;;20.25;13.35;;;;;;;2.17;60.32227;95810.97;;;;
2020/04/05 05:47:38;;;;;;;20.25;13.35;;;;;;;2.17;60.32227;95810.97;;;;
2020/04/05 05:48:39;;;;;;;20.25;13.35;;;;;;;2.17;60.32227;95810.97;;;;
2020/04/05 05:49:39;;;;;;;20.25;13.35;;;;;;;2.17;60.32227;95810.97;;;;
2020/04/05 05:50:42;;;;;;;20.25;13.35;;;;;;;2.17;60.32227;95810.97;;;;
2020/04/05 05:51:45;;;;;;;20.25;13.35;;;;;;;2.17;60.32227;95810.97;;;;
2020/04/05 05:53:23;;;;;;;20.25;13.35;;;;;;;2.17;60.32227;95810.97;;;;
2020/04/05 05:54:25;;;;;;;20.25;13.35;;;;;;;2.17;60.32227;95810.97;;;;
2020/04/05 05:55:33;;;;;;;20.25;13.2;;;;;;;2.56;60.29199;95810.05;;;;
2020/04/05 05:56:38;;;;;;;20.25;13.2;;;;;;;2.56;60.29199;95810.05;;;;
2020/04/05 05:57:39;;;;;;;20.25;13.2;;;;;;;2.56;60.29199;95810.05;;;;
2020/04/05 05:58:39;;;;;;;20.55;15.15;;;;;;;2.73;61.06543;95810.74;;;;
2020/04/05 05:59:40;;;;;;;20.55;15.15;;;;;;;2.73;61.06543;95810.74;;;;
2020/04/05 06:00:41;;;;;;;20.55;15.15;;;;;;;2.73;61.06543;95810.74;;;;
2020/04/05 06:01:42;;;;;;;20.55;15.15;;;;;;;2.73;61.06543;95810.74;;;;
2020/04/05 06:02:43;;;;;;;20.55;15.15;;;;;;;2.73;61.06543;95810.74;;;;
2020/04/05 06:03:43;;;;;;;20.55;15.15;;;;;;;2.73;61.06543;95810.74;;;;
2020/04/05 06:04:44;;;;;;;20.55;15.15;;;;;;;2.73;61.06543;95810.74;;;;
2020/04/05 06:05:44;;;;;;;20.55;15.15;;;;;;;2.73;61.06543;95810.74;;;;
2020/04/05 06:06:45;;;;;;;20.55;15.15;;;;;;;2.73;61.06543;95810.74;;;;
2020/04/05 06:07:46;;;;;;;20.55;15.15;;;;;;;2.73;61.06543;95810.74;;;;
2020/04/05 06:08:47;;;;;;;18.8;14;;;;;;;3.21;60.7959;95835.76;;;;
2020/04/05 06:09:47;;;;;;;18.8;14;;;;;;;3.21;60.7959;95835.76;;;;
2020/04/05 06:10:48;;;;;;;18.8;14;;;;;;;3.21;60.7959;95835.76;;;;
2020/04/05 06:11:49;;;;;;;19.4;15;;;;;;;3.39;61.62402;95840.37;;;;
2020/04/05 06:12:49;;;;;;;19.4;15;;;;;;;3.39;61.62402;95840.37;;;;
2020/04/05 06:13:50;;;;;;;19.4;15;;;;;;;3.39;61.62402;95840.37;;;;
2020/04/05 06:14:51;;;;;;;19.4;15;;;;;;;3.39;61.62402;95840.37;;;;
2020/04/05 06:15:52;;;;;;;19.4;15;;;;;;;3.39;61.62402;95840.37;;;;
2020/04/05 06:16:53;;;;;;;19.4;15;;;;;;;3.39;61.62402;95840.37;;;;
2020/04/05 06:17:54;;;;;;;19.4;15;;;;;;;3.39;61.62402;95840.37;;;;
2020/04/05 06:18:54;;;;;;;19.4;15;;;;;;;3.39;61.62402;95840.37;;;;
2020/04/05 06:19:55;;;;;;;19.4;15;;;;;;;3.39;61.62402;95840.37;;;;
2020/04/05 06:20:55;;;;;;;19.4;15;;;;;;;3.39;61.62402;95840.37;;;;
2020/04/05 06:21:56;;;;;;;19.6;13.8;;;;;;;3.9;60.98828;95849.88;;;;
2020/04/05 06:22:56;;;;;;;19.6;13.8;;;;;;;3.9;60.98828;95849.88;;;;
2020/04/05 06:23:57;;;;;;;19.6;13.8;;;;;;;3.9;60.98828;95849.88;;;;
2020/04/05 06:24:57;;;;;;;17.9;14.45;;;;;;;4.08;61.74512;95859.23;;;;
2020/04/05 06:25:58;;;;;;;17.9;14.45;;;;;;;4.08;61.74512;95859.23;;;;
2020/04/05 06:26:58;;;;;;;17.95;14.75;;;;;;;4.37;62.21973;95846.4;;;;
2020/04/05 06:27:59;;;;;;;17.95;14.75;;;;;;;4.37;62.21973;95846.4;;;;
2020/04/05 06:28:59;;;;;;;17.95;14.75;;;;;;;4.37;62.21973;95846.4;;;;